sensor_id;sensor_type;location;lat;lon;timestamp;pressure;altitude;pressure_sealevel;temperature;humidity
38530;BME280;24301;54.332;48.386;2023-09-19T00:00:37;99233.69;;;13.11;66.82
38530;BME280;24301;54.332;48.386;2023-09-19T00:03:03;99233.78;;;13.07;66.95
38530;BME280;24301;54.332;48.386;2023-09-19T00:05:34;99231.25;;;13.03;67.25
38530;BME280;24301;54.332;48.386;2023-09-19T00:08:01;99231.28;;;13.00;67.53
38530;BME280;24301;54.332;48.386;2023-09-19T00:10:31;99232.38;;;12.89;67.46
38530;BME280;24301;54.332;48.386;2023-09-19T00:12:58;99233.47;;;12.79;68.19
38530;BME280;24301;54.332;48.386;2023-09-19T00:15:26;99237.09;;;12.72;68.25
38530;BME280;24301;54.332;48.386;2023-09-19T00:17:56;99242.50;;;12.67;68.84
38530;BME280;24301;54.332;48.386;2023-09-19T00:20:23;99243.47;;;12.60;68.81
38530;BME280;24301;54.332;48.386;2023-09-19T00:22:50;99255.03;;;12.54;69.16
38530;BME280;24301;54.332;48.386;2023-09-19T00:25:18;99250.69;;;12.50;69.23
38530;BME280;24301;54.332;48.386;2023-09-19T00:27:45;99249.81;;;12.51;69.51
38530;BME280;24301;54.332;48.386;2023-09-19T00:30:13;99254.22;;;12.49;69.36
38530;BME280;24301;54.332;48.386;2023-09-19T00:32:42;99249.97;;;12.42;69.59
38530;BME280;24301;54.332;48.386;2023-09-19T00:35:08;99253.56;;;12.38;69.77
38530;BME280;24301;54.332;48.386;2023-09-19T00:37:37;99260.81;;;12.26;70.09
38530;BME280;24301;54.332;48.386;2023-09-19T00:40:06;99267.94;;;12.18;70.22
38530;BME280;24301;54.332;48.386;2023-09-19T00:42:35;99263.69;;;12.11;70.68
38530;BME280;24301;54.332;48.386;2023-09-19T00:45:05;99263.75;;;12.06;71.28
38530;BME280;24301;54.332;48.386;2023-09-19T00:47:31;99259.41;;;12.03;71.37
38530;BME280;24301;54.332;48.386;2023-09-19T00:49:58;99267.31;;;12.02;71.71
38530;BME280;24301;54.332;48.386;2023-09-19T00:52:24;99262.03;;;12.03;71.17
38530;BME280;24301;54.332;48.386;2023-09-19T00:54:51;99267.31;;;12.03;71.57
38530;BME280;24301;54.332;48.386;2023-09-19T00:57:17;99270.84;;;12.02;71.38
38530;BME280;24301;54.332;48.386;2023-09-19T00:59:47;99273.44;;;12.05;71.25
38530;BME280;24301;54.332;48.386;2023-09-19T01:02:18;99274.31;;;12.04;71.53
38530;BME280;24301;54.332;48.386;2023-09-19T01:04:44;99275.22;;;12.03;70.81
38530;BME280;24301;54.332;48.386;2023-09-19T01:07:10;99274.41;;;11.97;70.93
38530;BME280;24301;54.332;48.386;2023-09-19T01:09:36;99280.63;;;11.91;71.07
38530;BME280;24301;54.332;48.386;2023-09-19T01:12:05;99284.31;;;11.81;71.28
38530;BME280;24301;54.332;48.386;2023-09-19T01:14:55;99281.72;;;11.76;71.85
38530;BME280;24301;54.332;48.386;2023-09-19T01:17:30;99267.09;;;11.56;71.39
38530;BME280;24301;54.332;48.386;2023-09-19T01:20:17;99282.97;;;11.50;72.38
38530;BME280;24301;54.332;48.386;2023-09-19T01:23:18;99283.94;;;11.41;72.64
38530;BME280;24301;54.332;48.386;2023-09-19T01:26:05;99284.03;;;11.33;72.58
38530;BME280;24301;54.332;48.386;2023-09-19T01:29:01;99278.88;;;11.29;73.62
38530;BME280;24301;54.332;48.386;2023-09-19T01:31:29;99285.13;;;11.18;72.91
38530;BME280;24301;54.332;48.386;2023-09-19T01:34:01;99285.13;;;11.18;73.52
38530;BME280;24301;54.332;48.386;2023-09-19T01:36:34;99290.47;;;11.12;73.80
38530;BME280;24301;54.332;48.386;2023-09-19T01:39:10;99276.53;;;11.02;74.02
38530;BME280;24301;54.332;48.386;2023-09-19T01:41:54;99280.94;;;11.02;73.89
38530;BME280;24301;54.332;48.386;2023-09-19T01:47:28;99287.28;;;10.82;74.94
38530;BME280;24301;54.332;48.386;2023-09-19T01:50:27;99300.41;;;10.84;75.48
38530;BME280;24301;54.332;48.386;2023-09-19T01:53:17;99287.38;;;10.73;76.47
38530;BME280;24301;54.332;48.386;2023-09-19T02:00:07;99299.78;;;10.57;75.88
38530;BME280;24301;54.332;48.386;2023-09-19T02:02:44;99301.63;;;10.50;76.61
38530;BME280;24301;54.332;48.386;2023-09-19T02:05:11;99297.28;;;10.44;76.74
38530;BME280;24301;54.332;48.386;2023-09-19T02:07:41;99316.53;;;10.46;77.03
38530;BME280;24301;54.332;48.386;2023-09-19T02:10:07;99309.53;;;10.44;77.25
38530;BME280;24301;54.332;48.386;2023-09-19T02:13:04;99313.94;;;10.43;78.00
38530;BME280;24301;54.332;48.386;2023-09-19T02:15:30;99309.59;;;10.36;77.75
38530;BME280;24301;54.332;48.386;2023-09-19T02:18:00;99314.84;;;10.36;78.01
38530;BME280;24301;54.332;48.386;2023-09-19T02:20:26;99317.50;;;10.30;77.99
38530;BME280;24301;54.332;48.386;2023-09-19T02:22:52;99318.44;;;10.26;78.76
38530;BME280;24301;54.332;48.386;2023-09-19T02:25:38;99321.97;;;10.21;78.78
38530;BME280;24301;54.332;48.386;2023-09-19T02:28:07;99322.88;;;10.17;78.65
38530;BME280;24301;54.332;48.386;2023-09-19T02:30:35;99321.13;;;10.15;79.10
38530;BME280;24301;54.332;48.386;2023-09-19T02:33:02;99320.25;;;10.16;79.11
38530;BME280;24301;54.332;48.386;2023-09-19T02:35:29;99325.50;;;10.17;79.16
38530;BME280;24301;54.332;48.386;2023-09-19T02:37:58;99324.56;;;10.26;79.32
38530;BME280;24301;54.332;48.386;2023-09-19T02:40:24;99328.75;;;10.51;79.09
38530;BME280;24301;54.332;48.386;2023-09-19T02:42:55;99331.06;;;10.86;78.56
38530;BME280;24301;54.332;48.386;2023-09-19T02:45:23;99325.22;;;11.39;77.96
38530;BME280;24301;54.332;48.386;2023-09-19T02:47:50;99332.41;;;11.93;75.95
38530;BME280;24301;54.332;48.386;2023-09-19T02:50:16;99330.06;;;12.33;73.71
38530;BME280;24301;54.332;48.386;2023-09-19T02:52:44;99333.84;;;12.71;72.43
38530;BME280;24301;54.332;48.386;2023-09-19T02:55:12;99334.97;;;13.05;70.87
38530;BME280;24301;54.332;48.386;2023-09-19T02:57:40;99329.22;;;13.30;69.06
38530;BME280;24301;54.332;48.386;2023-09-19T03:00:09;99333.91;;;13.61;68.02
38530;BME280;24301;54.332;48.386;2023-09-19T03:02:37;99336.53;;;14.00;66.94
38530;BME280;24301;54.332;48.386;2023-09-19T03:05:05;99343.13;;;14.20;65.29
38530;BME280;24301;54.332;48.386;2023-09-19T03:07:31;99340.28;;;14.29;64.80
38530;BME280;24301;54.332;48.386;2023-09-19T03:10:00;99338.09;;;14.83;63.75
38530;BME280;24301;54.332;48.386;2023-09-19T03:12:27;99340.31;;;15.32;61.81
38530;BME280;24301;54.332;48.386;2023-09-19T03:14:53;99346.88;;;15.80;60.19
38530;BME280;24301;54.332;48.386;2023-09-19T03:17:19;99348.44;;;16.44;58.70
38530;BME280;24301;54.332;48.386;2023-09-19T03:19:46;99348.47;;;17.22;56.95
38530;BME280;24301;54.332;48.386;2023-09-19T03:22:14;99352.25;;;17.88;54.73
38530;BME280;24301;54.332;48.386;2023-09-19T03:24:41;99349.75;;;18.29;52.67
38530;BME280;24301;54.332;48.386;2023-09-19T03:27:09;99354.41;;;18.67;51.26
38530;BME280;24301;54.332;48.386;2023-09-19T03:29:36;99351.63;;;19.13;50.15
38530;BME280;24301;54.332;48.386;2023-09-19T03:32:03;99352.91;;;19.63;48.31
38530;BME280;24301;54.332;48.386;2023-09-19T03:34:29;99361.72;;;20.23;47.25
38530;BME280;24301;54.332;48.386;2023-09-19T03:36:56;99360.78;;;20.24;46.41
38530;BME280;24301;54.332;48.386;2023-09-19T03:39:22;99359.16;;;20.02;46.32
38530;BME280;24301;54.332;48.386;2023-09-19T03:41:48;99371.41;;;19.47;46.66
38530;BME280;24301;54.332;48.386;2023-09-19T03:44:15;99362.94;;;19.58;46.73
38530;BME280;24301;54.332;48.386;2023-09-19T03:46:41;99371.88;;;19.76;46.08
38530;BME280;24301;54.332;48.386;2023-09-19T03:49:07;99378.63;;;19.04;46.46
38530;BME280;24301;54.332;48.386;2023-09-19T03:51:34;99372.13;;;18.01;47.97
38530;BME280;24301;54.332;48.386;2023-09-19T03:54:00;99380.72;;;17.84;48.83
38530;BME280;24301;54.332;48.386;2023-09-19T03:56:26;99386.63;;;17.45;49.00
38530;BME280;24301;54.332;48.386;2023-09-19T03:59:16;99380.63;;;16.87;50.16
38530;BME280;24301;54.332;48.386;2023-09-19T04:02:01;99388.84;;;16.24;51.67
38530;BME280;24301;54.332;48.386;2023-09-19T04:04:32;99387.00;;;15.66;53.05
38530;BME280;24301;54.332;48.386;2023-09-19T04:07:07;99385.63;;;15.21;54.05
38530;BME280;24301;54.332;48.386;2023-09-19T04:09:42;99388.31;;;14.85;54.95
38530;BME280;24301;54.332;48.386;2023-09-19T04:12:39;99395.72;;;14.70;56.44
38530;BME280;24301;54.332;48.386;2023-09-19T04:19:21;99404.06;;;14.53;57.60
38530;BME280;24301;54.332;48.386;2023-09-19T04:21:51;99408.69;;;15.49;56.53
38530;BME280;24301;54.332;48.386;2023-09-19T04:24:17;99400.75;;;16.39;53.56
38530;BME280;24301;54.332;48.386;2023-09-19T04:26:53;99408.06;;;16.02;53.32
38530;BME280;24301;54.332;48.386;2023-09-19T04:29:21;99404.13;;;16.16;53.16
38530;BME280;24301;54.332;48.386;2023-09-19T04:31:47;99406.19;;;15.74;53.64
38530;BME280;24301;54.332;48.386;2023-09-19T04:34:13;99410.59;;;15.75;54.19
38530;BME280;24301;54.332;48.386;2023-09-19T04:36:42;99410.44;;;16.40;53.06
38530;BME280;24301;54.332;48.386;2023-09-19T04:39:09;99407.38;;;16.26;53.07
38530;BME280;24301;54.332;48.386;2023-09-19T04:41:36;99418.97;;;16.50;52.58
38530;BME280;24301;54.332;48.386;2023-09-19T04:44:07;99416.88;;;16.60;52.22
38530;BME280;24301;54.332;48.386;2023-09-19T04:46:35;99412.72;;;16.24;52.28
38530;BME280;24301;54.332;48.386;2023-09-19T04:49:02;99419.94;;;17.53;52.30
38530;BME280;24301;54.332;48.386;2023-09-19T04:51:28;99416.19;;;20.00;46.94
38530;BME280;24301;54.332;48.386;2023-09-19T04:54:00;99429.16;;;21.35;43.61
38530;BME280;24301;54.332;48.386;2023-09-19T04:56:27;99414.00;;;22.35;40.68
38530;BME280;24301;54.332;48.386;2023-09-19T04:58:54;99421.00;;;22.22;39.92
38530;BME280;24301;54.332;48.386;2023-09-19T05:01:21;99421.97;;;22.53;39.14
38530;BME280;24301;54.332;48.386;2023-09-19T05:03:48;99425.56;;;23.45;37.98
38530;BME280;24301;54.332;48.386;2023-09-19T05:06:22;99422.38;;;23.38;36.47
38530;BME280;24301;54.332;48.386;2023-09-19T05:08:50;99430.88;;;22.53;38.36
38530;BME280;24301;54.332;48.386;2023-09-19T05:11:20;99434.47;;;23.15;37.37
38530;BME280;24301;54.332;48.386;2023-09-19T05:13:49;99428.13;;;23.47;36.89
38530;BME280;24301;54.332;48.386;2023-09-19T05:16:16;99424.13;;;22.46;37.67
38530;BME280;24301;54.332;48.386;2023-09-19T05:18:42;99437.84;;;21.57;39.44
38530;BME280;24301;54.332;48.386;2023-09-19T05:21:08;99445.91;;;21.04;40.21
38530;BME280;24301;54.332;48.386;2023-09-19T05:23:34;99437.34;;;20.60;40.79
38530;BME280;24301;54.332;48.386;2023-09-19T05:26:00;99445.09;;;19.48;42.42
38530;BME280;24301;54.332;48.386;2023-09-19T05:28:27;99453.53;;;19.17;43.48
38530;BME280;24301;54.332;48.386;2023-09-19T05:30:53;99462.13;;;19.03;44.00
38530;BME280;24301;54.332;48.386;2023-09-19T05:33:19;99466.47;;;19.05;43.89
38530;BME280;24301;54.332;48.386;2023-09-19T05:35:48;99453.28;;;19.64;43.35
38530;BME280;24301;54.332;48.386;2023-09-19T05:38:14;99452.72;;;20.17;42.26
38530;BME280;24301;54.332;48.386;2023-09-19T05:40:45;99466.97;;;21.45;40.25
38530;BME280;24301;54.332;48.386;2023-09-19T05:43:11;99448.56;;;23.03;37.73
38530;BME280;24301;54.332;48.386;2023-09-19T05:45:41;99461.09;;;21.90;38.34
38530;BME280;24301;54.332;48.386;2023-09-19T05:48:09;99463.56;;;20.89;40.02
38530;BME280;24301;54.332;48.386;2023-09-19T05:50:37;99463.19;;;20.41;41.18
38530;BME280;24301;54.332;48.386;2023-09-19T05:53:04;99470.53;;;19.97;41.92
38530;BME280;24301;54.332;48.386;2023-09-19T05:55:31;99464.53;;;19.71;42.38
38530;BME280;24301;54.332;48.386;2023-09-19T05:57:57;99474.44;;;19.67;42.65
38530;BME280;24301;54.332;48.386;2023-09-19T06:00:24;99485.22;;;19.45;43.09
38530;BME280;24301;54.332;48.386;2023-09-19T06:02:56;99480.41;;;19.33;43.79
38530;BME280;24301;54.332;48.386;2023-09-19T06:05:26;99481.72;;;19.22;44.06
38530;BME280;24301;54.332;48.386;2023-09-19T06:07:54;99480.75;;;18.58;44.95
38530;BME280;24301;54.332;48.386;2023-09-19T06:10:20;99477.38;;;18.07;45.94
38530;BME280;24301;54.332;48.386;2023-09-19T06:12:47;99491.59;;;17.80;46.80
38530;BME280;24301;54.332;48.386;2023-09-19T06:15:15;99487.34;;;18.48;46.28
38530;BME280;24301;54.332;48.386;2023-09-19T06:17:45;99494.81;;;19.91;44.24
38530;BME280;24301;54.332;48.386;2023-09-19T06:20:12;99485.06;;;21.40;41.13
38530;BME280;24301;54.332;48.386;2023-09-19T06:22:42;99483.97;;;22.93;38.64
38530;BME280;24301;54.332;48.386;2023-09-19T06:25:09;99490.88;;;25.56;35.21
38530;BME280;24301;54.332;48.386;2023-09-19T06:27:49;99489.09;;;25.69;34.00
38530;BME280;24301;54.332;48.386;2023-09-19T06:30:18;99494.53;;;25.54;33.44
38530;BME280;24301;54.332;48.386;2023-09-19T06:32:44;99488.84;;;26.11;31.97
38530;BME280;24301;54.332;48.386;2023-09-19T06:35:12;99488.91;;;24.91;33.18
38530;BME280;24301;54.332;48.386;2023-09-19T06:37:42;99490.81;;;23.75;34.72
38530;BME280;24301;54.332;48.386;2023-09-19T06:40:12;99497.47;;;23.22;35.99
38530;BME280;24301;54.332;48.386;2023-09-19T06:42:47;99496.84;;;24.93;33.75
38530;BME280;24301;54.332;48.386;2023-09-19T06:45:15;99495.84;;;27.37;32.07
38530;BME280;24301;54.332;48.386;2023-09-19T06:47:47;99491.59;;;28.38;28.96
38530;BME280;24301;54.332;48.386;2023-09-19T06:50:17;99502.09;;;29.20;28.14
38530;BME280;24301;54.332;48.386;2023-09-19T06:52:45;99504.81;;;29.41;27.38
38530;BME280;24301;54.332;48.386;2023-09-19T06:55:13;99515.38;;;28.10;28.69
38530;BME280;24301;54.332;48.386;2023-09-19T06:57:42;99505.38;;;27.30;29.86
38530;BME280;24301;54.332;48.386;2023-09-19T07:00:10;99510.00;;;26.92;30.35
38530;BME280;24301;54.332;48.386;2023-09-19T07:05:24;99504.59;;;28.33;28.55
38530;BME280;24301;54.332;48.386;2023-09-19T07:07:50;99507.22;;;28.90;28.29
38530;BME280;24301;54.332;48.386;2023-09-19T07:10:16;99516.44;;;29.53;27.27
38530;BME280;24301;54.332;48.386;2023-09-19T07:12:44;99507.50;;;30.77;26.26
38530;BME280;24301;54.332;48.386;2023-09-19T07:15:13;99510.50;;;30.43;25.54
38530;BME280;24301;54.332;48.386;2023-09-19T07:17:39;99509.50;;;27.94;28.33
38530;BME280;24301;54.332;48.386;2023-09-19T07:20:06;99522.97;;;25.85;30.63
38530;BME280;24301;54.332;48.386;2023-09-19T07:22:33;99514.75;;;23.92;33.32
38530;BME280;24301;54.332;48.386;2023-09-19T07:25:05;99511.19;;;22.53;35.34
38530;BME280;24301;54.332;48.386;2023-09-19T07:27:31;99526.72;;;21.62;37.46
38530;BME280;24301;54.332;48.386;2023-09-19T07:29:56;99526.34;;;20.21;40.18
38530;BME280;24301;54.332;48.386;2023-09-19T07:32:22;99524.66;;;19.37;41.92
38530;BME280;24301;54.332;48.386;2023-09-19T07:34:49;99526.41;;;19.16;42.71
38530;BME280;24301;54.332;48.386;2023-09-19T07:37:15;99520.84;;;19.00;43.29
38530;BME280;24301;54.332;48.386;2023-09-19T07:39:42;99523.44;;;19.44;42.55
38530;BME280;24301;54.332;48.386;2023-09-19T07:42:09;99521.06;;;20.77;41.55
38530;BME280;24301;54.332;48.386;2023-09-19T07:44:37;99531.88;;;22.00;38.97
38530;BME280;24301;54.332;48.386;2023-09-19T07:47:03;99525.28;;;21.54;39.48
38530;BME280;24301;54.332;48.386;2023-09-19T07:49:29;99525.59;;;22.01;39.41
38530;BME280;24301;54.332;48.386;2023-09-19T07:51:55;99524.78;;;24.34;35.86
38530;BME280;24301;54.332;48.386;2023-09-19T07:54:22;99527.69;;;26.59;32.65
38530;BME280;24301;54.332;48.386;2023-09-19T07:56:48;99522.81;;;27.73;30.05
38530;BME280;24301;54.332;48.386;2023-09-19T07:59:14;99520.44;;;27.21;29.58
38530;BME280;24301;54.332;48.386;2023-09-19T08:01:40;99514.38;;;24.57;33.02
38530;BME280;24301;54.332;48.386;2023-09-19T08:04:07;99527.13;;;23.80;34.41
38530;BME280;24301;54.332;48.386;2023-09-19T08:06:33;99524.69;;;23.61;34.96
38530;BME280;24301;54.332;48.386;2023-09-19T08:08:59;99521.03;;;22.85;36.00
38530;BME280;24301;54.332;48.386;2023-09-19T08:11:26;99530.94;;;21.84;37.42
38530;BME280;24301;54.332;48.386;2023-09-19T08:13:56;99529.38;;;20.71;39.48
38530;BME280;24301;54.332;48.386;2023-09-19T08:16:22;99528.91;;;20.03;39.49
38530;BME280;24301;54.332;48.386;2023-09-19T08:18:50;99533.94;;;19.27;40.17
38530;BME280;24301;54.332;48.386;2023-09-19T08:21:23;99542.81;;;19.05;41.90
38530;BME280;24301;54.332;48.386;2023-09-19T08:23:50;99537.78;;;18.51;43.45
38530;BME280;24301;54.332;48.386;2023-09-19T08:26:16;99541.38;;;18.26;44.82
38530;BME280;24301;54.332;48.386;2023-09-19T08:28:42;99544.34;;;17.93;45.26
38530;BME280;24301;54.332;48.386;2023-09-19T08:31:08;99531.09;;;17.14;44.45
38530;BME280;24301;54.332;48.386;2023-09-19T08:33:36;99543.72;;;17.07;45.09
38530;BME280;24301;54.332;48.386;2023-09-19T08:36:03;99541.66;;;16.87;46.14
38530;BME280;24301;54.332;48.386;2023-09-19T08:38:34;99549.22;;;16.71;47.32
38530;BME280;24301;54.332;48.386;2023-09-19T08:41:06;99541.00;;;16.50;48.01
38530;BME280;24301;54.332;48.386;2023-09-19T08:43:38;99538.41;;;16.48;48.20
38530;BME280;24301;54.332;48.386;2023-09-19T08:48:31;99527.34;;;16.02;46.55
38530;BME280;24301;54.332;48.386;2023-09-19T08:51:05;99531.56;;;15.76;45.57
38530;BME280;24301;54.332;48.386;2023-09-19T08:54:06;99533.28;;;15.77;45.49
38530;BME280;24301;54.332;48.386;2023-09-19T08:56:33;99524.88;;;15.96;44.96
38530;BME280;24301;54.332;48.386;2023-09-19T08:59:03;99523.75;;;16.05;43.88
38530;BME280;24301;54.332;48.386;2023-09-19T09:01:31;99526.50;;;16.00;43.10
38530;BME280;24301;54.332;48.386;2023-09-19T09:04:02;99528.03;;;16.09;42.83
38530;BME280;24301;54.332;48.386;2023-09-19T09:06:30;99521.78;;;16.12;42.25
38530;BME280;24301;54.332;48.386;2023-09-19T09:09:00;99519.84;;;15.85;42.24
38530;BME280;24301;54.332;48.386;2023-09-19T09:11:26;99525.06;;;15.88;42.19
38530;BME280;24301;54.332;48.386;2023-09-19T09:13:53;99510.44;;;15.73;41.92
38530;BME280;24301;54.332;48.386;2023-09-19T09:16:19;99524.56;;;15.74;41.74
38530;BME280;24301;54.332;48.386;2023-09-19T09:18:46;99515.66;;;15.76;41.72
38530;BME280;24301;54.332;48.386;2023-09-19T09:21:18;99512.69;;;15.56;41.98
38530;BME280;24301;54.332;48.386;2023-09-19T09:23:48;99508.97;;;15.63;42.30
38530;BME280;24301;54.332;48.386;2023-09-19T09:26:15;99514.84;;;15.40;43.28
38530;BME280;24301;54.332;48.386;2023-09-19T09:28:46;99516.41;;;15.48;43.16
38530;BME280;24301;54.332;48.386;2023-09-19T09:31:32;99519.22;;;15.42;43.27
38530;BME280;24301;54.332;48.386;2023-09-19T09:33:58;99526.31;;;15.42;43.56
38530;BME280;24301;54.332;48.386;2023-09-19T09:36:38;99525.41;;;15.76;43.31
38530;BME280;24301;54.332;48.386;2023-09-19T09:39:08;99517.00;;;15.93;42.96
38530;BME280;24301;54.332;48.386;2023-09-19T09:41:51;99507.19;;;15.97;43.01
38530;BME280;24301;54.332;48.386;2023-09-19T09:44:18;99509.75;;;16.00;43.22
38530;BME280;24301;54.332;48.386;2023-09-19T09:46:46;99513.03;;;16.09;43.12
38530;BME280;24301;54.332;48.386;2023-09-19T09:49:25;99509.28;;;16.17;43.24
38530;BME280;24301;54.332;48.386;2023-09-19T09:52:01;99506.94;;;16.06;43.37
38530;BME280;24301;54.332;48.386;2023-09-19T09:54:33;99514.16;;;16.01;43.56
38530;BME280;24301;54.332;48.386;2023-09-19T09:57:10;99511.53;;;15.99;44.14
38530;BME280;24301;54.332;48.386;2023-09-19T09:59:47;99506.91;;;16.07;44.26
38530;BME280;24301;54.332;48.386;2023-09-19T10:02:19;99512.53;;;15.95;44.34
38530;BME280;24301;54.332;48.386;2023-09-19T10:04:52;99499.53;;;15.86;44.70
38530;BME280;24301;54.332;48.386;2023-09-19T10:07:29;99517.63;;;16.03;44.81
38530;BME280;24301;54.332;48.386;2023-09-19T10:10:00;99508.75;;;16.04;44.18
38530;BME280;24301;54.332;48.386;2023-09-19T10:12:31;99514.06;;;16.04;43.63
38530;BME280;24301;54.332;48.386;2023-09-19T10:15:02;99507.75;;;16.08;43.65
38530;BME280;24301;54.332;48.386;2023-09-19T10:17:30;99504.06;;;16.14;43.43
38530;BME280;24301;54.332;48.386;2023-09-19T10:20:04;99508.97;;;16.26;43.70
38530;BME280;24301;54.332;48.386;2023-09-19T10:23:26;99514.56;;;16.47;43.37
38530;BME280;24301;54.332;48.386;2023-09-19T10:26:07;99508.84;;;16.61;42.71
38530;BME280;24301;54.332;48.386;2023-09-19T10:28:37;99508.81;;;16.32;42.92
38530;BME280;24301;54.332;48.386;2023-09-19T10:34:47;99512.63;;;15.92;44.19
38530;BME280;24301;54.332;48.386;2023-09-19T10:44:50;99515.00;;;16.01;44.19
38530;BME280;24301;54.332;48.386;2023-09-19T10:54:38;99519.00;;;16.16;44.01
38530;BME280;24301;54.332;48.386;2023-09-19T10:57:09;99515.88;;;16.02;44.21
38530;BME280;24301;54.332;48.386;2023-09-19T10:59:35;99515.66;;;15.76;45.38
38530;BME280;24301;54.332;48.386;2023-09-19T11:02:17;99509.50;;;15.76;46.15
38530;BME280;24301;54.332;48.386;2023-09-19T11:04:44;99522.41;;;15.90;45.85
38530;BME280;24301;54.332;48.386;2023-09-19T11:07:14;99515.91;;;16.00;45.51
38530;BME280;24301;54.332;48.386;2023-09-19T11:09:51;99515.78;;;16.05;45.31
38530;BME280;24301;54.332;48.386;2023-09-19T11:14:59;99512.41;;;16.31;44.87
38530;BME280;24301;54.332;48.386;2023-09-19T11:17:35;99498.03;;;16.38;44.11
38530;BME280;24301;54.332;48.386;2023-09-19T11:30:32;99506.63;;;16.17;43.63
38530;BME280;24301;54.332;48.386;2023-09-19T11:36:38;99505.88;;;16.12;44.81
38530;BME280;24301;54.332;48.386;2023-09-19T11:39:03;99501.94;;;16.25;44.64
38530;BME280;24301;54.332;48.386;2023-09-19T11:52:30;99512.00;;;16.14;44.68
38530;BME280;24301;54.332;48.386;2023-09-19T11:55:03;99508.78;;;16.02;44.94
38530;BME280;24301;54.332;48.386;2023-09-19T12:04:16;99494.97;;;16.22;44.92
38530;BME280;24301;54.332;48.386;2023-09-19T12:07:00;99503.22;;;16.42;44.39
38530;BME280;24301;54.332;48.386;2023-09-19T12:12:47;99502.34;;;16.41;43.48
38530;BME280;24301;54.332;48.386;2023-09-19T12:15:39;99508.63;;;16.38;43.63
38530;BME280;24301;54.332;48.386;2023-09-19T12:18:27;99497.34;;;16.00;43.28
38530;BME280;24301;54.332;48.386;2023-09-19T12:21:24;99506.84;;;16.09;43.87
38530;BME280;24301;54.332;48.386;2023-09-19T12:24:19;99507.75;;;16.08;43.96
38530;BME280;24301;54.332;48.386;2023-09-19T12:33:56;99508.00;;;16.30;43.46
38530;BME280;24301;54.332;48.386;2023-09-19T12:36:44;99501.94;;;16.25;43.26
38530;BME280;24301;54.332;48.386;2023-09-19T12:39:34;99502.22;;;16.16;43.77
38530;BME280;24301;54.332;48.386;2023-09-19T12:42:12;99497.56;;;16.24;43.39
38530;BME280;24301;54.332;48.386;2023-09-19T12:44:49;99500.22;;;16.24;43.34
38530;BME280;24301;54.332;48.386;2023-09-19T12:47:18;99497.13;;;16.09;43.08
38530;BME280;24301;54.332;48.386;2023-09-19T12:50:10;99511.53;;;15.99;43.30
38530;BME280;24301;54.332;48.386;2023-09-19T12:53:04;99507.03;;;16.01;43.20
38530;BME280;24301;54.332;48.386;2023-09-19T12:55:31;99509.69;;;16.01;43.67
38530;BME280;24301;54.332;48.386;2023-09-19T13:00:35;99515.94;;;15.65;44.05
38530;BME280;24301;54.332;48.386;2023-09-19T13:06:01;99521.38;;;15.61;45.42
38530;BME280;24301;54.332;48.386;2023-09-19T13:08:31;99520.50;;;15.60;45.18
38530;BME280;24301;54.332;48.386;2023-09-19T13:11:11;99518.75;;;15.59;45.23
38530;BME280;24301;54.332;48.386;2023-09-19T13:13:49;99522.31;;;15.58;45.31
38530;BME280;24301;54.332;48.386;2023-09-19T13:16:20;99519.66;;;15.60;45.25
38530;BME280;24301;54.332;48.386;2023-09-19T13:18:53;99521.59;;;15.51;45.59
38530;BME280;24301;54.332;48.386;2023-09-19T13:21:30;99523.97;;;15.62;45.91
38530;BME280;24301;54.332;48.386;2023-09-19T13:24:20;99521.94;;;15.72;45.87
38530;BME280;24301;54.332;48.386;2023-09-19T13:26:46;99517.81;;;15.62;45.98
38530;BME280;24301;54.332;48.386;2023-09-19T13:29:12;99521.56;;;15.55;46.65
38530;BME280;24301;54.332;48.386;2023-09-19T13:31:39;99518.84;;;15.56;46.82
38530;BME280;24301;54.332;48.386;2023-09-19T13:34:07;99519.72;;;15.57;46.62
38530;BME280;24301;54.332;48.386;2023-09-19T13:36:33;99527.63;;;15.58;46.71
38530;BME280;24301;54.332;48.386;2023-09-19T13:38:59;99521.38;;;15.61;46.94
38530;BME280;24301;54.332;48.386;2023-09-19T13:41:25;99521.31;;;15.64;46.95
38530;BME280;24301;54.332;48.386;2023-09-19T13:43:52;99528.31;;;15.66;46.59
38530;BME280;24301;54.332;48.386;2023-09-19T13:46:21;99523.03;;;15.65;46.09
38530;BME280;24301;54.332;48.386;2023-09-19T13:48:54;99517.03;;;15.58;45.90
38530;BME280;24301;54.332;48.386;2023-09-19T13:51:21;99516.28;;;15.53;46.35
38530;BME280;24301;54.332;48.386;2023-09-19T13:53:50;99514.56;;;15.50;45.91
38530;BME280;24301;54.332;48.386;2023-09-19T13:56:16;99509.44;;;15.44;45.72
38530;BME280;24301;54.332;48.386;2023-09-19T13:58:42;99519.22;;;15.42;45.80
38530;BME280;24301;54.332;48.386;2023-09-19T14:01:08;99520.94;;;15.43;45.86
38530;BME280;24301;54.332;48.386;2023-09-19T14:03:42;99521.03;;;15.40;46.27
38530;BME280;24301;54.332;48.386;2023-09-19T14:06:13;99521.94;;;15.39;46.45
38530;BME280;24301;54.332;48.386;2023-09-19T14:08:39;99528.19;;;15.36;46.43
38530;BME280;24301;54.332;48.386;2023-09-19T14:11:08;99529.22;;;15.31;46.80
38530;BME280;24301;54.332;48.386;2023-09-19T14:13:34;99529.75;;;15.09;47.62
38530;BME280;24301;54.332;48.386;2023-09-19T14:16:04;99535.41;;;14.93;48.61
38530;BME280;24301;54.332;48.386;2023-09-19T14:18:31;99533.13;;;14.78;49.36
38530;BME280;24301;54.332;48.386;2023-09-19T14:21:07;99535.25;;;14.60;50.43
38530;BME280;24301;54.332;48.386;2023-09-19T14:23:40;99539.91;;;14.49;50.62
38530;BME280;24301;54.332;48.386;2023-09-19T14:26:08;99538.28;;;14.42;50.70
38530;BME280;24301;54.332;48.386;2023-09-19T14:28:35;99529.53;;;14.40;50.87
38530;BME280;24301;54.332;48.386;2023-09-19T14:31:08;99542.75;;;14.40;50.79
38530;BME280;24301;54.332;48.386;2023-09-19T14:33:35;99533.16;;;14.34;50.10